createdAt,value
2019-04-21T00:01:59.671Z,21.20
2019-04-21T00:04:44.178Z,15.60
2019-04-21T00:07:20.567Z,19.80
2019-04-21T00:09:58.372Z,23.27
2019-04-21T00:12:22.800Z,21.97
2019-04-21T00:14:51.303Z,22.23
2019-04-21T00:17:17.517Z,22.00
2019-04-21T00:19:49.729Z,24.43
2019-04-21T00:22:34.285Z,18.70
2019-04-21T00:25:09.036Z,19.00
2019-04-21T00:27:44.049Z,23.60
2019-04-21T00:30:15.663Z,23.80
2019-04-21T00:32:41.566Z,20.00
2019-04-21T00:35:08.593Z,20.00
2019-04-21T00:37:53.420Z,21.50
2019-04-21T00:40:27.422Z,16.20
2019-04-21T00:42:59.939Z,19.50
2019-04-21T00:45:29.223Z,18.90
2019-04-21T00:48:03.917Z,21.23
2019-04-21T00:50:51.493Z,16.70
2019-04-21T00:53:24.546Z,27.17
2019-04-21T00:55:57.347Z,19.20
2019-04-21T00:58:28.678Z,23.73
2019-04-21T01:00:58.011Z,19.13
2019-04-21T01:03:35.970Z,21.77
2019-04-21T01:06:04.230Z,18.53
2019-04-21T01:08:35.665Z,19.97
2019-04-21T01:11:02.253Z,19.70
2019-04-21T01:13:41.669Z,16.50
2019-04-21T01:16:14.526Z,18.60
2019-04-21T01:18:44.510Z,21.43
2019-04-21T01:20:56.758Z,25.03
2019-04-21T01:23:27.572Z,19.93
2019-04-21T01:26:13.812Z,20.00
2019-04-21T01:28:49.492Z,18.05
2019-04-21T01:31:17.545Z,20.97
2019-04-21T01:33:57.086Z,24.07
2019-04-21T01:36:26.078Z,22.00
2019-04-21T01:39:08.012Z,19.43
2019-04-21T01:41:50.910Z,18.57
2019-04-21T01:44:01.084Z,19.70
2019-04-21T01:46:33.931Z,19.33
2019-04-21T01:49:05.542Z,18.77
2019-04-21T01:51:57.995Z,18.80
2019-04-21T01:54:48.171Z,24.10
2019-04-21T01:57:17.318Z,21.23
2019-04-21T01:59:47.526Z,19.65
2019-04-21T02:02:29.088Z,20.43
2019-04-21T02:05:07.093Z,20.85
2019-04-21T02:07:34.004Z,19.48
2019-04-21T02:10:08.628Z,20.25
2019-04-21T02:12:40.614Z,18.30
2019-04-21T02:15:14.327Z,19.30
2019-04-21T02:17:40.728Z,21.20
2019-04-21T02:20:06.988Z,19.70
2019-04-21T02:23:06.067Z,19.75
2019-04-21T02:25:22.834Z,18.85
2019-04-21T02:27:59.472Z,19.80
2019-04-21T02:30:36.102Z,18.67
2019-04-21T02:35:52.625Z,17.33
2019-04-21T02:38:20.635Z,23.30
2019-04-21T02:43:18.614Z,19.00
2019-04-21T02:45:47.097Z,18.10
2019-04-21T02:48:34.122Z,18.83
2019-04-21T02:56:03.902Z,17.57
2019-04-21T03:01:37.062Z,21.77
2019-04-21T03:04:11.221Z,18.87
2019-04-21T03:09:31.787Z,19.60
2019-04-21T03:12:11.300Z,25.77
2019-04-21T03:17:21.737Z,18.13
2019-04-21T03:44:59.560Z,20.03
2019-04-21T03:50:08.514Z,19.48
2019-04-21T03:52:38.929Z,19.07
2019-04-21T04:04:15.691Z,19.90
2019-04-21T04:06:43.020Z,25.57
2019-04-21T04:09:21.368Z,21.67
2019-04-21T04:14:42.579Z,22.87
2019-04-21T04:17:04.702Z,24.37
2019-04-21T04:19:40.146Z,19.40
2019-04-21T04:22:04.259Z,24.30
2019-04-21T04:27:36.918Z,24.80
2019-04-21T04:32:09.277Z,21.77
2019-04-21T04:37:31.967Z,23.00
2019-04-21T04:40:10.943Z,24.53
2019-04-21T04:42:56.873Z,21.30
2019-04-21T04:48:05.791Z,21.10
2019-04-21T04:53:38.863Z,20.97
2019-04-21T05:00:58.134Z,23.03
2019-04-21T05:21:40.439Z,26.23
2019-04-21T05:23:59.990Z,22.33
2019-04-21T05:26:29.940Z,33.33
2019-04-21T05:29:00.679Z,15.90
2019-04-21T05:32:13.414Z,19.73
2019-04-21T05:34:31.945Z,18.53
2019-04-21T05:37:33.348Z,15.90
2019-04-21T05:40:00.527Z,18.33
2019-04-21T05:42:36.624Z,22.77
2019-04-21T05:48:03.304Z,17.50
2019-04-21T05:50:23.931Z,23.53
2019-04-21T05:52:53.491Z,19.70
2019-04-21T05:55:40.612Z,21.10
2019-04-21T05:58:06.856Z,15.20
2019-04-21T06:03:16.410Z,22.53
2019-04-21T06:08:25.131Z,19.70
2019-04-21T06:10:54.228Z,19.60
2019-04-21T06:13:37.779Z,17.70
2019-04-21T06:16:02.049Z,18.10
2019-04-21T06:21:05.590Z,16.40
2019-04-21T06:23:36.696Z,19.53
2019-04-21T06:26:43.404Z,18.60
2019-04-21T06:28:47.012Z,21.47
2019-04-21T06:31:29.269Z,18.00
2019-04-21T10:17:51.954Z,9.50
2019-04-21T10:20:24.832Z,9.68
2019-04-21T10:22:55.520Z,10.50
2019-04-21T10:25:26.253Z,12.70
2019-04-21T10:27:57.081Z,13.58
2019-04-21T10:30:28.723Z,9.90
2019-04-21T10:33:00.820Z,9.57
2019-04-21T10:35:32.872Z,9.27
2019-04-21T10:38:17.039Z,8.20
2019-04-21T10:40:41.408Z,9.70
2019-04-21T10:43:17.662Z,11.00
2019-04-21T10:45:49.261Z,9.13
2019-04-21T10:48:23.107Z,9.20
2019-04-21T10:50:57.017Z,10.20
2019-04-21T10:53:31.300Z,9.07
2019-04-21T10:56:13.527Z,15.67
2019-04-21T10:58:40.486Z,11.50
2019-04-21T11:01:18.967Z,11.37
2019-04-21T11:04:17.216Z,11.10
2019-04-21T11:06:42.277Z,10.27
2019-04-21T11:09:13.852Z,12.00
2019-04-21T11:11:46.853Z,10.43
2019-04-21T11:14:17.850Z,9.70
2019-04-21T11:16:54.702Z,8.80
2019-04-21T11:19:25.937Z,9.93
2019-04-21T11:21:56.921Z,9.13
2019-04-21T11:24:29.576Z,9.13
2019-04-21T11:27:01.828Z,11.07
2019-04-21T11:29:35.090Z,8.07
2019-04-21T11:32:09.349Z,13.50
2019-04-21T11:34:40.997Z,12.10
2019-04-21T11:37:19.840Z,11.57
2019-04-21T11:39:58.009Z,8.60
2019-04-21T11:42:33.552Z,7.90
2019-04-21T11:45:06.273Z,12.43
2019-04-21T11:47:42.593Z,12.00
2019-04-21T11:50:17.061Z,8.37
2019-04-21T11:52:49.239Z,10.80
2019-04-21T11:55:20.649Z,8.83
2019-04-21T11:57:52.831Z,12.23
2019-04-21T12:00:27.313Z,11.87
2019-04-21T12:03:05.525Z,10.90
2019-04-21T12:05:37.283Z,13.57
2019-04-21T12:08:20.762Z,9.50
2019-04-21T12:10:45.038Z,11.53
2019-04-21T12:13:18.295Z,13.27
2019-04-21T12:15:49.277Z,13.93
2019-04-21T12:18:20.051Z,10.37
2019-04-21T12:20:51.622Z,10.53
2019-04-21T12:23:22.724Z,7.60
2019-04-21T12:25:54.723Z,11.10
2019-04-21T12:28:25.877Z,10.90
2019-04-21T12:30:57.883Z,11.20
2019-04-21T12:33:47.815Z,11.30
2019-04-21T12:36:20.215Z,10.00
2019-04-21T12:38:57.681Z,11.48
2019-04-21T12:41:24.339Z,10.00
2019-04-21T12:43:58.444Z,9.00
2019-04-21T12:46:29.852Z,9.20
2019-04-21T12:49:02.155Z,8.93
2019-04-21T12:51:44.085Z,14.87
2019-04-21T12:54:15.426Z,9.13
2019-04-21T12:56:47.608Z,11.43
2019-04-21T12:59:21.175Z,11.10
2019-04-21T13:01:56.936Z,16.07
2019-04-21T13:04:27.844Z,10.33
2019-04-21T13:07:03.636Z,11.40
2019-04-21T13:09:37.462Z,10.80
2019-04-21T13:12:17.191Z,9.17
2019-04-21T13:14:47.479Z,13.63
2019-04-21T13:17:21.467Z,11.73
2019-04-21T13:19:54.833Z,12.23
2019-04-21T13:22:25.978Z,10.77
2019-04-21T13:24:58.466Z,17.73
2019-04-21T13:27:34.598Z,11.63
2019-04-21T13:30:12.531Z,11.40
2019-04-21T13:32:45.089Z,13.13
2019-04-21T13:35:17.088Z,15.00
2019-04-21T13:37:50.605Z,13.70
2019-04-21T13:40:56.823Z,17.17
2019-04-21T13:43:14.934Z,11.27
2019-04-21T13:45:45.810Z,11.30
2019-04-21T13:48:16.770Z,16.13
2019-04-21T13:50:48.969Z,11.30
2019-04-21T13:53:20.889Z,13.33
2019-04-21T13:55:53.842Z,11.10
2019-04-21T13:58:24.523Z,10.90
2019-04-21T14:00:59.874Z,11.63
2019-04-21T14:03:33.301Z,11.17
2019-04-21T14:06:06.696Z,12.83
2019-04-21T14:08:40.162Z,11.83
2019-04-21T14:11:11.386Z,12.53
2019-04-21T14:13:44.888Z,9.93
2019-04-21T14:16:16.052Z,12.10
2019-04-21T14:18:48.028Z,12.67
2019-04-21T14:21:21.117Z,13.83
2019-04-21T14:23:52.897Z,12.87
2019-04-21T14:26:26.815Z,13.83
2019-04-21T14:28:59.397Z,16.93
2019-04-21T14:31:30.449Z,14.33
2019-04-21T14:34:04.384Z,15.73
2019-04-21T14:36:35.008Z,12.40
2019-04-21T14:39:10.519Z,10.63
2019-04-21T14:41:44.316Z,14.20
2019-04-21T14:44:15.313Z,14.30
2019-04-21T14:46:55.315Z,11.70
2019-04-21T14:49:33.128Z,13.27
2019-04-21T14:52:16.864Z,11.83
2019-04-21T14:54:54.453Z,14.53
2019-04-21T14:57:25.239Z,16.23
2019-04-21T14:59:57.215Z,11.20
2019-04-21T15:02:28.140Z,12.07
2019-04-21T15:04:59.847Z,8.63
2019-04-21T15:07:31.018Z,10.77
2019-04-21T15:10:09.744Z,10.40
2019-04-21T15:12:36.077Z,12.03
2019-04-21T15:15:07.763Z,12.33
2019-04-21T15:17:39.797Z,11.90
2019-04-21T15:20:15.776Z,10.63
2019-04-21T15:22:44.314Z,8.33
2019-04-21T15:25:16.134Z,8.70
2019-04-21T15:27:48.788Z,9.13
2019-04-21T15:30:20.790Z,11.97
2019-04-21T15:32:52.637Z,12.37
2019-04-21T15:35:24.663Z,12.63
2019-04-21T15:37:55.929Z,13.57
2019-04-21T15:40:37.447Z,10.97
2019-04-21T15:43:02.279Z,10.30
2019-04-21T15:45:33.113Z,11.50
2019-04-21T15:48:04.294Z,13.60
2019-04-21T15:50:35.694Z,10.40
2019-04-21T15:53:09.806Z,9.97
2019-04-21T15:55:48.720Z,10.93
2019-04-21T15:58:39.201Z,11.33
2019-04-21T16:01:20.409Z,11.63
2019-04-21T16:03:58.331Z,10.63
2019-04-21T16:06:27.748Z,10.40
2019-04-21T16:09:00.947Z,8.60
2019-04-21T16:11:31.602Z,10.53
2019-04-21T16:14:03.739Z,14.83
2019-04-21T16:16:36.118Z,11.50
2019-04-21T16:19:08.162Z,13.23
2019-04-21T16:21:44.385Z,11.37
2019-04-21T16:24:14.238Z,14.50
2019-04-21T16:26:46.700Z,11.20
2019-04-21T16:29:20.859Z,13.10
2019-04-21T16:31:53.170Z,12.83
2019-04-21T16:34:38.910Z,11.90
2019-04-21T16:36:59.537Z,12.20
2019-04-21T16:39:31.454Z,14.10
2019-04-21T16:42:02.639Z,10.57
2019-04-21T16:44:34.642Z,13.03
2019-04-21T16:47:07.704Z,9.77
2019-04-21T16:50:01.699Z,7.50
2019-04-21T16:52:43.743Z,12.70
2019-04-21T16:55:24.697Z,8.00
2019-04-21T16:58:22.140Z,10.37
2019-04-21T17:01:04.550Z,12.03
2019-04-21T17:03:32.714Z,7.33
2019-04-21T17:06:07.044Z,9.03
2019-04-21T17:08:40.798Z,11.37
2019-04-21T17:11:23.777Z,12.37
2019-04-21T17:13:47.844Z,13.87
2019-04-21T17:16:44.892Z,7.67
2019-04-21T17:19:01.828Z,9.70
2019-04-21T17:21:23.959Z,8.57
2019-04-21T17:23:54.702Z,11.73
2019-04-21T17:26:27.005Z,8.73
2019-04-21T17:29:01.121Z,9.73
2019-04-21T17:31:37.231Z,13.90
2019-04-21T17:34:17.591Z,7.33
2019-04-21T17:36:45.238Z,9.37
2019-04-21T17:39:20.811Z,9.53
2019-04-21T17:42:16.739Z,9.67
2019-04-21T17:46:06.896Z,9.47
2019-04-21T17:48:42.942Z,10.33
2019-04-21T17:51:35.155Z,9.83
2019-04-21T17:54:23.583Z,10.15
2019-04-21T17:57:10.980Z,8.30
2019-04-21T17:59:51.196Z,8.13
2019-04-21T18:04:49.238Z,7.25
2019-04-21T18:07:31.172Z,8.63
2019-04-21T18:10:04.693Z,7.95
2019-04-21T18:12:36.175Z,7.70
2019-04-21T18:15:16.718Z,7.10
2019-04-21T18:17:36.547Z,8.03
2019-04-21T18:20:12.286Z,6.78
2019-04-21T18:23:22.759Z,7.67
2019-04-21T18:25:57.895Z,7.17
2019-04-21T18:28:26.390Z,6.60
2019-04-21T18:31:12.270Z,8.30
2019-04-21T18:34:06.079Z,5.90
2019-04-21T18:36:49.901Z,6.50
2019-04-21T18:39:52.484Z,6.33
2019-04-21T18:43:05.552Z,10.43
2019-04-21T18:45:48.065Z,7.87
2019-04-21T18:48:18.405Z,7.00
2019-04-21T18:50:53.305Z,5.13
2019-04-21T18:53:52.313Z,7.33
2019-04-21T18:56:16.941Z,13.30
2019-04-21T18:58:48.624Z,8.60
2019-04-21T19:01:26.265Z,7.97
2019-04-21T19:04:13.476Z,6.00
2019-04-21T19:07:16.902Z,9.87
2019-04-21T19:12:42.428Z,8.95
2019-04-21T19:15:02.594Z,5.27
2019-04-21T19:18:14.953Z,5.43
2019-04-21T19:20:12.580Z,7.00
2019-04-21T19:22:44.416Z,5.53
2019-04-21T19:25:16.960Z,7.07
2019-04-21T19:27:49.103Z,7.00
2019-04-21T19:30:35.426Z,5.40
2019-04-21T19:33:01.076Z,6.03
2019-04-21T19:35:13.006Z,5.93
2019-04-21T19:37:54.185Z,7.27
2019-04-21T19:40:45.723Z,6.43
2019-04-21T19:43:22.542Z,7.97
2019-04-21T19:45:56.365Z,9.63
2019-04-21T19:48:44.711Z,6.87
2019-04-21T19:51:10.811Z,8.20
2019-04-21T19:53:41.694Z,10.73
2019-04-21T19:56:00.754Z,8.33
2019-04-21T19:58:36.343Z,8.97
2019-04-21T20:01:05.702Z,6.83
2019-04-21T20:03:36.725Z,9.23
2019-04-21T20:06:27.256Z,8.10
2019-04-21T20:09:00.678Z,7.73
2019-04-21T20:11:30.874Z,7.50
2019-04-21T20:14:35.275Z,8.83
2019-04-21T20:16:41.294Z,6.73
2019-04-21T20:18:58.621Z,9.23
2019-04-21T20:21:24.919Z,5.77
2019-04-21T20:24:03.054Z,5.83
2019-04-21T20:26:35.690Z,8.27
2019-04-21T20:29:22.093Z,8.60
2019-04-21T20:31:53.154Z,8.50
2019-04-21T20:34:34.492Z,8.73
2019-04-21T20:37:07.667Z,5.30
2019-04-21T20:39:23.520Z,6.20
2019-04-21T20:42:12.763Z,7.10
2019-04-21T20:45:13.475Z,14.83
2019-04-21T20:47:25.603Z,8.30
2019-04-21T20:50:07.436Z,7.83
2019-04-21T20:52:48.073Z,8.40
2019-04-21T20:55:19.353Z,8.30
2019-04-21T21:03:50.554Z,8.23
2019-04-21T21:06:21.803Z,11.07
2019-04-21T21:08:55.453Z,7.80
2019-04-21T21:11:53.572Z,6.37
2019-04-21T21:14:20.076Z,8.40
2019-04-21T21:16:53.673Z,8.77
2019-04-21T21:19:28.914Z,8.53
2019-04-21T21:21:54.329Z,11.37
2019-04-21T21:24:41.938Z,7.70
2019-04-21T21:27:09.107Z,8.33
2019-04-21T21:29:56.544Z,8.33
2019-04-21T21:35:39.613Z,11.33
2019-04-21T21:38:24.013Z,8.03
2019-04-21T21:43:39.210Z,9.20
2019-04-21T21:46:28.593Z,8.40
2019-04-21T21:52:57.566Z,7.57
2019-04-21T22:00:19.137Z,9.63
2019-04-21T22:02:54.901Z,8.53
2019-04-21T22:05:29.961Z,6.27
2019-04-21T22:08:00.599Z,8.40
2019-04-21T22:10:32.689Z,8.50
2019-04-21T22:13:35.745Z,10.67
2019-04-21T22:16:03.808Z,7.60
2019-04-21T22:18:58.234Z,7.80
2019-04-21T22:21:20.276Z,9.70
2019-04-21T22:23:55.531Z,8.80
2019-04-21T22:26:19.002Z,11.50
2019-04-21T22:29:36.306Z,10.60
2019-04-21T22:32:22.904Z,11.30
2019-04-21T22:35:34.417Z,9.03
2019-04-21T22:39:06.994Z,9.40
2019-04-21T22:45:41.276Z,12.20
2019-04-21T22:49:23.579Z,10.43
2019-04-21T22:52:24.010Z,8.83
2019-04-21T22:55:33.203Z,12.33
2019-04-21T23:02:38.933Z,12.40
2019-04-21T23:06:22.017Z,14.67
2019-04-21T23:08:47.634Z,13.60
2019-04-21T23:11:57.672Z,12.43
2019-04-21T23:14:57.405Z,9.87
2019-04-21T23:17:53.286Z,13.53
2019-04-21T23:20:43.567Z,11.13
2019-04-21T23:23:55.914Z,10.63
2019-04-21T23:26:48.607Z,10.80
2019-04-21T23:30:09.974Z,10.83
2019-04-21T23:32:42.220Z,10.93
2019-04-21T23:35:19.760Z,9.77
2019-04-21T23:37:58.598Z,12.30
2019-04-21T23:41:36.132Z,12.25
2019-04-21T23:44:47.511Z,13.57
2019-04-21T23:48:15.648Z,12.05
